KFLO/FLO METAR and TAF weather

Enter ICAO airport designator
Station Type Date Time Source
KFLO METAR 2020/09/28 09:37 UTC NOAA

KFLO 280937Z 00000KT 1 1/2SM BR BKN002 OVC120 19/18 A2994 RMK AO2 T01890183


Station Type Date Time Source
KFLO Decoded METAR 2020/09/28 09:37 UTC NOAA

FLORENCE REGIONAL AIRPORT, SC, United States (KFLO) 34-11N 079-44W 44M
Sep 28, 2020 - 05:37 AM EDT / 2020.09.28 0937 UTC
Wind: Calm:0
Visibility: 1 1/2 mile(s):0
Sky conditions: overcast
Weather: mist
Temperature: 66.0 F (18.9 C)
Dew Point: 64.9 F (18.3 C)
Relative Humidity: 96%
Pressure (altimeter): 29.94 in. Hg (1013 hPa)
ob: KFLO 280937Z 00000KT 1 1/2SM BR BKN002 OVC120 19/18 A2994 RMK AO2 T01890183
cycle: 9

Station Type Date Time Source
KFLO TAF 2020/09/28 06:22 UTC NOAA

TAF KFLO 280520Z 2806/2906 21002KT 2SM BR OVC002
TEMPO 2808/2812 1/2SM FG VV002
FM281300 22002KT 4SM BR VCSH OVC035
FM281500 21006KT P6SM OVC035 PROB30 2820/2824 4SM SHRA OVC030
FM290000 16009KT P6SM OVC015
FM290300 17006KT 4SM BR OVC007
AMD NOT SKED 2806/2809

Example: see airport list